Shasta Lake, California
Current Conditions -  °F | °C
As of 11:53 PM on Friday 19 Dec 2014 (Local Time) from KRDD Reporting Station
Haze Haze  
Wind Chill: 51°   Ceiling: 400
Heat Index: 51°   Visibility: 4mi
Dew Point: 50°   Wind: 10mph
Humidity: 96%   Direction: 180°S
Pressure: 30.12"   Gusts: NA
Location:  40.68°N, 122.35°W
Report Text: KRDD 200753Z AUTO 18009KT 4SM BR OVC004 11/10 A3012 RMK AO2 RAB04E13 SLP198 P0001 T01060100 401170100
Loading
Personal Weather Stations






























Interactive Weather Map New forecast layout! Learn more

10-Day Weather Forecast

Advertisements
Track Severe Weather on mobile